sensor_id;sensor_type;location;lat;lon;timestamp;temperature;humidity
73777;DHT22;62088;50.240;2.696;2023-06-10T00:01:41;20.50;64.00
73777;DHT22;62088;50.240;2.696;2023-06-10T00:04:10;20.50;64.20
73777;DHT22;62088;50.240;2.696;2023-06-10T00:06:37;20.40;64.40
73777;DHT22;62088;50.240;2.696;2023-06-10T00:09:05;20.40;64.50
73777;DHT22;62088;50.240;2.696;2023-06-10T00:11:32;20.40;64.50
73777;DHT22;62088;50.240;2.696;2023-06-10T00:14:00;20.40;64.50
73777;DHT22;62088;50.240;2.696;2023-06-10T00:16:27;20.40;64.50
73777;DHT22;62088;50.240;2.696;2023-06-10T00:18:54;20.30;64.40
73777;DHT22;62088;50.240;2.696;2023-06-10T00:21:28;20.30;64.50
73777;DHT22;62088;50.240;2.696;2023-06-10T00:23:55;20.30;64.50
73777;DHT22;62088;50.240;2.696;2023-06-10T00:26:23;20.20;64.60
73777;DHT22;62088;50.240;2.696;2023-06-10T00:28:50;20.10;64.70
73777;DHT22;62088;50.240;2.696;2023-06-10T00:31:20;20.10;64.70
73777;DHT22;62088;50.240;2.696;2023-06-10T00:33:47;20.10;64.80
73777;DHT22;62088;50.240;2.696;2023-06-10T00:36:14;20.10;64.80
73777;DHT22;62088;50.240;2.696;2023-06-10T00:38:41;20.10;64.80
73777;DHT22;62088;50.240;2.696;2023-06-10T00:41:08;20.00;64.80
73777;DHT22;62088;50.240;2.696;2023-06-10T00:43:36;19.90;65.00
73777;DHT22;62088;50.240;2.696;2023-06-10T00:46:03;19.90;65.00
73777;DHT22;62088;50.240;2.696;2023-06-10T00:48:30;19.90;65.20
73777;DHT22;62088;50.240;2.696;2023-06-10T00:50:58;19.90;65.20
73777;DHT22;62088;50.240;2.696;2023-06-10T00:53:27;19.90;65.30
73777;DHT22;62088;50.240;2.696;2023-06-10T00:55:54;19.80;65.30
73777;DHT22;62088;50.240;2.696;2023-06-10T00:58:23;19.80;65.30
73777;DHT22;62088;50.240;2.696;2023-06-10T01:00:51;19.80;65.40
73777;DHT22;62088;50.240;2.696;2023-06-10T01:03:18;19.70;65.40
73777;DHT22;62088;50.240;2.696;2023-06-10T01:05:53;19.70;65.40
73777;DHT22;62088;50.240;2.696;2023-06-10T01:08:43;19.60;65.40
73777;DHT22;62088;50.240;2.696;2023-06-10T01:11:29;19.60;65.40
73777;DHT22;62088;50.240;2.696;2023-06-10T01:14:00;19.60;65.40
73777;DHT22;62088;50.240;2.696;2023-06-10T01:16:27;19.50;65.50
73777;DHT22;62088;50.240;2.696;2023-06-10T01:18:55;19.50;65.50
73777;DHT22;62088;50.240;2.696;2023-06-10T01:21:24;19.40;65.50
73777;DHT22;62088;50.240;2.696;2023-06-10T01:23:52;19.40;65.60
73777;DHT22;62088;50.240;2.696;2023-06-10T01:26:26;19.40;65.60
73777;DHT22;62088;50.240;2.696;2023-06-10T01:28:59;19.30;65.80
73777;DHT22;62088;50.240;2.696;2023-06-10T01:31:51;19.40;66.10
73777;DHT22;62088;50.240;2.696;2023-06-10T01:34:23;19.30;66.10
73777;DHT22;62088;50.240;2.696;2023-06-10T01:36:52;19.30;66.30
73777;DHT22;62088;50.240;2.696;2023-06-10T01:39:23;19.30;66.50
73777;DHT22;62088;50.240;2.696;2023-06-10T01:41:52;19.20;66.50
73777;DHT22;62088;50.240;2.696;2023-06-10T01:44:21;19.20;66.50
73777;DHT22;62088;50.240;2.696;2023-06-10T01:46:48;19.20;66.50
73777;DHT22;62088;50.240;2.696;2023-06-10T01:49:16;19.10;66.50
73777;DHT22;62088;50.240;2.696;2023-06-10T01:51:43;19.10;66.70
73777;DHT22;62088;50.240;2.696;2023-06-10T01:54:10;19.10;66.90
73777;DHT22;62088;50.240;2.696;2023-06-10T01:56:37;19.00;67.10
73777;DHT22;62088;50.240;2.696;2023-06-10T01:59:04;19.00;67.20
73777;DHT22;62088;50.240;2.696;2023-06-10T02:01:31;19.00;67.20
73777;DHT22;62088;50.240;2.696;2023-06-10T02:03:58;18.90;67.10
73777;DHT22;62088;50.240;2.696;2023-06-10T02:06:25;18.90;67.10
73777;DHT22;62088;50.240;2.696;2023-06-10T02:08:52;18.90;67.20
73777;DHT22;62088;50.240;2.696;2023-06-10T02:11:20;18.80;67.20
73777;DHT22;62088;50.240;2.696;2023-06-10T02:13:47;18.80;67.30
73777;DHT22;62088;50.240;2.696;2023-06-10T02:16:14;18.80;67.30
73777;DHT22;62088;50.240;2.696;2023-06-10T02:18:44;18.80;67.30
73777;DHT22;62088;50.240;2.696;2023-06-10T02:21:11;18.70;67.30
73777;DHT22;62088;50.240;2.696;2023-06-10T02:23:38;18.70;67.30
73777;DHT22;62088;50.240;2.696;2023-06-10T02:26:05;18.70;67.40
73777;DHT22;62088;50.240;2.696;2023-06-10T02:28:32;18.70;67.40
73777;DHT22;62088;50.240;2.696;2023-06-10T02:30:59;18.60;67.40
73777;DHT22;62088;50.240;2.696;2023-06-10T02:33:28;18.60;67.50
73777;DHT22;62088;50.240;2.696;2023-06-10T02:35:56;18.60;67.50
73777;DHT22;62088;50.240;2.696;2023-06-10T02:38:24;18.60;67.60
73777;DHT22;62088;50.240;2.696;2023-06-10T02:40:51;18.60;67.60
73777;DHT22;62088;50.240;2.696;2023-06-10T02:43:18;18.60;67.70
73777;DHT22;62088;50.240;2.696;2023-06-10T02:45:46;18.50;67.70
73777;DHT22;62088;50.240;2.696;2023-06-10T02:48:14;18.50;67.70
73777;DHT22;62088;50.240;2.696;2023-06-10T02:50:41;18.50;67.70
73777;DHT22;62088;50.240;2.696;2023-06-10T02:53:18;18.50;67.80
73777;DHT22;62088;50.240;2.696;2023-06-10T02:55:51;18.50;67.80
73777;DHT22;62088;50.240;2.696;2023-06-10T02:58:19;18.40;67.80
73777;DHT22;62088;50.240;2.696;2023-06-10T03:00:47;18.40;67.80
73777;DHT22;62088;50.240;2.696;2023-06-10T03:03:15;18.40;67.90
73777;DHT22;62088;50.240;2.696;2023-06-10T03:05:51;18.40;68.10
73777;DHT22;62088;50.240;2.696;2023-06-10T03:08:21;18.40;68.20
73777;DHT22;62088;50.240;2.696;2023-06-10T03:10:48;18.40;68.20
73777;DHT22;62088;50.240;2.696;2023-06-10T03:13:17;18.40;68.10
73777;DHT22;62088;50.240;2.696;2023-06-10T03:15:44;18.30;68.10
73777;DHT22;62088;50.240;2.696;2023-06-10T03:18:16;18.30;68.10
73777;DHT22;62088;50.240;2.696;2023-06-10T03:20:44;18.30;68.20
73777;DHT22;62088;50.240;2.696;2023-06-10T03:23:11;18.20;68.30
73777;DHT22;62088;50.240;2.696;2023-06-10T03:25:39;18.20;68.40
73777;DHT22;62088;50.240;2.696;2023-06-10T03:28:08;18.20;68.50
73777;DHT22;62088;50.240;2.696;2023-06-10T03:30:36;18.20;68.50
73777;DHT22;62088;50.240;2.696;2023-06-10T03:33:03;18.20;68.50
73777;DHT22;62088;50.240;2.696;2023-06-10T03:35:31;18.20;68.40
73777;DHT22;62088;50.240;2.696;2023-06-10T03:38:03;18.10;68.30
73777;DHT22;62088;50.240;2.696;2023-06-10T03:40:31;18.10;68.40
73777;DHT22;62088;50.240;2.696;2023-06-10T03:43:00;18.10;68.40
73777;DHT22;62088;50.240;2.696;2023-06-10T03:45:28;18.10;68.50
73777;DHT22;62088;50.240;2.696;2023-06-10T03:47:56;18.10;68.50
73777;DHT22;62088;50.240;2.696;2023-06-10T03:50:30;18.00;68.60
73777;DHT22;62088;50.240;2.696;2023-06-10T03:52:58;18.00;68.60
73777;DHT22;62088;50.240;2.696;2023-06-10T03:55:26;18.00;68.60
73777;DHT22;62088;50.240;2.696;2023-06-10T03:57:54;17.90;68.70
73777;DHT22;62088;50.240;2.696;2023-06-10T04:00:21;17.90;68.70
73777;DHT22;62088;50.240;2.696;2023-06-10T04:02:48;17.90;68.70
73777;DHT22;62088;50.240;2.696;2023-06-10T04:05:30;17.90;68.90
73777;DHT22;62088;50.240;2.696;2023-06-10T04:07:57;17.90;69.00
73777;DHT22;62088;50.240;2.696;2023-06-10T04:10:24;17.90;69.10
73777;DHT22;62088;50.240;2.696;2023-06-10T04:12:53;17.80;69.10
73777;DHT22;62088;50.240;2.696;2023-06-10T04:15:22;17.80;69.30
73777;DHT22;62088;50.240;2.696;2023-06-10T04:17:50;17.80;69.40
73777;DHT22;62088;50.240;2.696;2023-06-10T04:20:20;17.80;69.40
73777;DHT22;62088;50.240;2.696;2023-06-10T04:22:48;17.80;69.40
73777;DHT22;62088;50.240;2.696;2023-06-10T04:25:16;17.80;69.30
73777;DHT22;62088;50.240;2.696;2023-06-10T04:27:43;17.70;69.40
73777;DHT22;62088;50.240;2.696;2023-06-10T04:30:11;17.80;69.40
73777;DHT22;62088;50.240;2.696;2023-06-10T04:32:39;17.80;69.50
73777;DHT22;62088;50.240;2.696;2023-06-10T04:35:12;17.70;69.60
73777;DHT22;62088;50.240;2.696;2023-06-10T04:37:40;17.70;69.70
73777;DHT22;62088;50.240;2.696;2023-06-10T04:40:08;17.80;69.80
73777;DHT22;62088;50.240;2.696;2023-06-10T04:42:36;17.80;69.90
73777;DHT22;62088;50.240;2.696;2023-06-10T04:45:04;17.70;70.10
73777;DHT22;62088;50.240;2.696;2023-06-10T04:47:31;17.70;70.20
73777;DHT22;62088;50.240;2.696;2023-06-10T04:50:01;17.80;70.30
73777;DHT22;62088;50.240;2.696;2023-06-10T04:52:29;17.70;70.40
73777;DHT22;62088;50.240;2.696;2023-06-10T04:54:57;17.80;70.60
73777;DHT22;62088;50.240;2.696;2023-06-10T04:57:25;17.80;70.80
73777;DHT22;62088;50.240;2.696;2023-06-10T04:59:53;17.80;71.00
73777;DHT22;62088;50.240;2.696;2023-06-10T05:02:20;17.70;71.20
73777;DHT22;62088;50.240;2.696;2023-06-10T05:04:47;17.80;71.40
73777;DHT22;62088;50.240;2.696;2023-06-10T05:07:14;17.80;71.70
73777;DHT22;62088;50.240;2.696;2023-06-10T05:09:41;17.80;71.90
73777;DHT22;62088;50.240;2.696;2023-06-10T05:12:08;17.90;72.20
73777;DHT22;62088;50.240;2.696;2023-06-10T05:14:35;17.90;72.40
73777;DHT22;62088;50.240;2.696;2023-06-10T05:17:03;17.90;72.40
73777;DHT22;62088;50.240;2.696;2023-06-10T05:19:32;18.00;72.40
73777;DHT22;62088;50.240;2.696;2023-06-10T05:21:59;18.00;72.30
73777;DHT22;62088;50.240;2.696;2023-06-10T05:24:26;18.10;72.20
73777;DHT22;62088;50.240;2.696;2023-06-10T05:26:53;18.10;72.00
73777;DHT22;62088;50.240;2.696;2023-06-10T05:29:20;18.10;71.90
73777;DHT22;62088;50.240;2.696;2023-06-10T05:31:48;18.20;71.90
73777;DHT22;62088;50.240;2.696;2023-06-10T05:34:15;18.30;72.10
73777;DHT22;62088;50.240;2.696;2023-06-10T05:36:42;18.40;72.10
73777;DHT22;62088;50.240;2.696;2023-06-10T05:39:09;18.40;72.00
73777;DHT22;62088;50.240;2.696;2023-06-10T05:41:37;18.40;71.90
73777;DHT22;62088;50.240;2.696;2023-06-10T05:44:04;18.50;71.70
73777;DHT22;62088;50.240;2.696;2023-06-10T05:46:31;18.50;71.60
73777;DHT22;62088;50.240;2.696;2023-06-10T05:48:58;18.60;71.60
73777;DHT22;62088;50.240;2.696;2023-06-10T05:51:25;18.70;71.60
73777;DHT22;62088;50.240;2.696;2023-06-10T05:53:54;18.80;71.70
73777;DHT22;62088;50.240;2.696;2023-06-10T05:56:21;18.90;71.60
73777;DHT22;62088;50.240;2.696;2023-06-10T05:58:51;18.90;71.60
73777;DHT22;62088;50.240;2.696;2023-06-10T06:01:18;19.00;71.50
73777;DHT22;62088;50.240;2.696;2023-06-10T06:03:45;19.00;71.20
73777;DHT22;62088;50.240;2.696;2023-06-10T06:06:12;19.10;71.30
73777;DHT22;62088;50.240;2.696;2023-06-10T06:08:39;19.20;71.20
73777;DHT22;62088;50.240;2.696;2023-06-10T06:11:06;19.30;71.10
73777;DHT22;62088;50.240;2.696;2023-06-10T06:13:33;19.40;71.00
73777;DHT22;62088;50.240;2.696;2023-06-10T06:16:01;19.40;71.10
73777;DHT22;62088;50.240;2.696;2023-06-10T06:18:28;19.50;71.00
73777;DHT22;62088;50.240;2.696;2023-06-10T06:20:55;19.60;70.80
73777;DHT22;62088;50.240;2.696;2023-06-10T06:23:22;19.60;70.70
73777;DHT22;62088;50.240;2.696;2023-06-10T06:25:49;19.80;70.60
73777;DHT22;62088;50.240;2.696;2023-06-10T06:28:16;19.90;70.40
73777;DHT22;62088;50.240;2.696;2023-06-10T06:30:45;19.90;70.20
73777;DHT22;62088;50.240;2.696;2023-06-10T06:33:12;20.00;70.10
73777;DHT22;62088;50.240;2.696;2023-06-10T06:35:40;20.10;69.90
73777;DHT22;62088;50.240;2.696;2023-06-10T06:38:07;20.20;69.90
73777;DHT22;62088;50.240;2.696;2023-06-10T06:40:34;20.30;69.80
73777;DHT22;62088;50.240;2.696;2023-06-10T06:43:01;20.40;69.60
73777;DHT22;62088;50.240;2.696;2023-06-10T06:45:47;20.40;69.60
73777;DHT22;62088;50.240;2.696;2023-06-10T06:48:14;20.50;69.30
73777;DHT22;62088;50.240;2.696;2023-06-10T06:50:41;20.60;69.10
73777;DHT22;62088;50.240;2.696;2023-06-10T06:53:08;20.70;69.10
73777;DHT22;62088;50.240;2.696;2023-06-10T06:55:36;20.80;69.00
73777;DHT22;62088;50.240;2.696;2023-06-10T06:58:03;20.80;68.90
73777;DHT22;62088;50.240;2.696;2023-06-10T07:00:31;20.90;68.70
73777;DHT22;62088;50.240;2.696;2023-06-10T07:02:59;21.00;68.30
73777;DHT22;62088;50.240;2.696;2023-06-10T07:05:26;21.10;67.90
73777;DHT22;62088;50.240;2.696;2023-06-10T07:07:54;21.20;67.70
73777;DHT22;62088;50.240;2.696;2023-06-10T07:10:25;21.30;67.20
73777;DHT22;62088;50.240;2.696;2023-06-10T07:12:53;21.40;66.60
73777;DHT22;62088;50.240;2.696;2023-06-10T07:15:20;21.40;66.30
73777;DHT22;62088;50.240;2.696;2023-06-10T07:17:47;21.50;65.70
73777;DHT22;62088;50.240;2.696;2023-06-10T07:20:15;21.60;65.40
73777;DHT22;62088;50.240;2.696;2023-06-10T07:22:42;21.70;65.20
73777;DHT22;62088;50.240;2.696;2023-06-10T07:25:09;21.80;64.90
73777;DHT22;62088;50.240;2.696;2023-06-10T07:27:37;21.90;64.70
73777;DHT22;62088;50.240;2.696;2023-06-10T07:30:05;22.00;64.50
73777;DHT22;62088;50.240;2.696;2023-06-10T07:32:35;22.00;64.10
73777;DHT22;62088;50.240;2.696;2023-06-10T07:35:02;22.20;63.60
73777;DHT22;62088;50.240;2.696;2023-06-10T07:37:29;22.30;63.10
73777;DHT22;62088;50.240;2.696;2023-06-10T07:39:57;22.40;62.70
73777;DHT22;62088;50.240;2.696;2023-06-10T07:42:24;22.50;62.40
73777;DHT22;62088;50.240;2.696;2023-06-10T07:44:51;22.60;62.30
73777;DHT22;62088;50.240;2.696;2023-06-10T07:47:18;22.60;62.00
73777;DHT22;62088;50.240;2.696;2023-06-10T07:49:45;22.80;61.80
73777;DHT22;62088;50.240;2.696;2023-06-10T07:52:12;22.90;61.60
73777;DHT22;62088;50.240;2.696;2023-06-10T07:54:39;23.00;61.50
73777;DHT22;62088;50.240;2.696;2023-06-10T07:57:06;23.20;61.10
73777;DHT22;62088;50.240;2.696;2023-06-10T07:59:34;23.30;60.80
73777;DHT22;62088;50.240;2.696;2023-06-10T08:02:01;23.40;60.30
73777;DHT22;62088;50.240;2.696;2023-06-10T08:04:28;23.40;60.00
73777;DHT22;62088;50.240;2.696;2023-06-10T08:06:55;23.60;59.90
73777;DHT22;62088;50.240;2.696;2023-06-10T08:09:23;23.70;59.60
73777;DHT22;62088;50.240;2.696;2023-06-10T08:11:50;23.80;59.30
73777;DHT22;62088;50.240;2.696;2023-06-10T08:14:17;23.90;59.10
73777;DHT22;62088;50.240;2.696;2023-06-10T08:16:44;23.90;59.10
73777;DHT22;62088;50.240;2.696;2023-06-10T08:19:11;24.00;59.10
73777;DHT22;62088;50.240;2.696;2023-06-10T08:21:38;24.20;59.00
73777;DHT22;62088;50.240;2.696;2023-06-10T08:24:07;24.30;59.10
73777;DHT22;62088;50.240;2.696;2023-06-10T08:26:34;24.40;59.30
73777;DHT22;62088;50.240;2.696;2023-06-10T08:29:01;24.50;58.50
73777;DHT22;62088;50.240;2.696;2023-06-10T08:31:28;24.60;58.30
73777;DHT22;62088;50.240;2.696;2023-06-10T08:33:55;24.80;57.90
73777;DHT22;62088;50.240;2.696;2023-06-10T08:36:22;24.90;57.20
73777;DHT22;62088;50.240;2.696;2023-06-10T08:38:49;25.00;56.70
73777;DHT22;62088;50.240;2.696;2023-06-10T08:41:17;25.10;56.00
73777;DHT22;62088;50.240;2.696;2023-06-10T08:43:59;25.20;55.70
73777;DHT22;62088;50.240;2.696;2023-06-10T08:46:29;25.30;55.40
73777;DHT22;62088;50.240;2.696;2023-06-10T08:49:03;25.40;55.00
73777;DHT22;62088;50.240;2.696;2023-06-10T08:51:33;25.40;55.10
73777;DHT22;62088;50.240;2.696;2023-06-10T08:54:05;25.50;55.20
73777;DHT22;62088;50.240;2.696;2023-06-10T08:56:39;25.70;55.00
73777;DHT22;62088;50.240;2.696;2023-06-10T08:59:07;25.80;54.50
73777;DHT22;62088;50.240;2.696;2023-06-10T09:01:34;25.90;54.20
73777;DHT22;62088;50.240;2.696;2023-06-10T09:04:02;26.00;54.00
73777;DHT22;62088;50.240;2.696;2023-06-10T09:06:32;26.10;54.00
73777;DHT22;62088;50.240;2.696;2023-06-10T09:09:00;26.20;54.30
73777;DHT22;62088;50.240;2.696;2023-06-10T09:11:29;26.40;54.20
73777;DHT22;62088;50.240;2.696;2023-06-10T09:13:58;26.40;54.10
73777;DHT22;62088;50.240;2.696;2023-06-10T09:16:25;26.60;53.80
73777;DHT22;62088;50.240;2.696;2023-06-10T09:18:52;26.70;53.70
73777;DHT22;62088;50.240;2.696;2023-06-10T09:21:23;26.80;53.20
73777;DHT22;62088;50.240;2.696;2023-06-10T09:23:51;26.90;52.40
73777;DHT22;62088;50.240;2.696;2023-06-10T09:26:18;27.00;51.90
73777;DHT22;62088;50.240;2.696;2023-06-10T09:28:49;27.10;51.60
73777;DHT22;62088;50.240;2.696;2023-06-10T09:31:19;27.10;51.50
73777;DHT22;62088;50.240;2.696;2023-06-10T09:33:48;27.20;51.50
73777;DHT22;62088;50.240;2.696;2023-06-10T09:36:25;27.30;51.40
73777;DHT22;62088;50.240;2.696;2023-06-10T09:38:56;27.40;51.20
73777;DHT22;62088;50.240;2.696;2023-06-10T09:41:32;27.50;51.10
73777;DHT22;62088;50.240;2.696;2023-06-10T09:44:00;27.60;51.20
73777;DHT22;62088;50.240;2.696;2023-06-10T09:46:31;27.80;50.90
73777;DHT22;62088;50.240;2.696;2023-06-10T09:48:59;27.80;50.70
73777;DHT22;62088;50.240;2.696;2023-06-10T09:51:27;27.90;50.60
73777;DHT22;62088;50.240;2.696;2023-06-10T09:53:54;28.10;50.50
73777;DHT22;62088;50.240;2.696;2023-06-10T09:56:21;28.10;50.30
73777;DHT22;62088;50.240;2.696;2023-06-10T09:58:59;28.30;50.20
73777;DHT22;62088;50.240;2.696;2023-06-10T10:01:26;28.30;49.70
73777;DHT22;62088;50.240;2.696;2023-06-10T10:03:53;28.40;49.80
73777;DHT22;62088;50.240;2.696;2023-06-10T10:06:20;28.50;49.50
73777;DHT22;62088;50.240;2.696;2023-06-10T10:08:49;28.60;49.40
73777;DHT22;62088;50.240;2.696;2023-06-10T10:11:18;28.60;49.00
73777;DHT22;62088;50.240;2.696;2023-06-10T10:13:48;28.70;49.00
73777;DHT22;62088;50.240;2.696;2023-06-10T10:16:42;28.80;48.80
73777;DHT22;62088;50.240;2.696;2023-06-10T10:19:16;28.80;48.70
73777;DHT22;62088;50.240;2.696;2023-06-10T10:21:52;28.80;48.30
73777;DHT22;62088;50.240;2.696;2023-06-10T10:24:26;28.80;48.40
73777;DHT22;62088;50.240;2.696;2023-06-10T10:26:59;28.90;48.50
73777;DHT22;62088;50.240;2.696;2023-06-10T10:29:38;29.00;48.60
73777;DHT22;62088;50.240;2.696;2023-06-10T10:32:06;29.00;47.90
73777;DHT22;62088;50.240;2.696;2023-06-10T10:34:35;29.10;47.50
73777;DHT22;62088;50.240;2.696;2023-06-10T10:37:04;29.10;48.20
73777;DHT22;62088;50.240;2.696;2023-06-10T10:39:33;29.20;48.00
73777;DHT22;62088;50.240;2.696;2023-06-10T10:42:01;29.30;47.50
73777;DHT22;62088;50.240;2.696;2023-06-10T10:44:31;29.40;47.40
73777;DHT22;62088;50.240;2.696;2023-06-10T10:47:02;29.40;47.20
73777;DHT22;62088;50.240;2.696;2023-06-10T10:49:30;29.50;46.80
73777;DHT22;62088;50.240;2.696;2023-06-10T10:51:59;29.60;46.70
73777;DHT22;62088;50.240;2.696;2023-06-10T10:54:34;29.70;46.50
73777;DHT22;62088;50.240;2.696;2023-06-10T10:57:15;29.80;46.00
73777;DHT22;62088;50.240;2.696;2023-06-10T10:59:54;29.80;45.70
73777;DHT22;62088;50.240;2.696;2023-06-10T11:05:01;29.90;45.60
73777;DHT22;62088;50.240;2.696;2023-06-10T11:07:32;30.00;45.50
73777;DHT22;62088;50.240;2.696;2023-06-10T11:10:11;30.10;45.70
73777;DHT22;62088;50.240;2.696;2023-06-10T11:15:12;30.30;45.60
73777;DHT22;62088;50.240;2.696;2023-06-10T11:31:29;30.80;44.60
73777;DHT22;62088;50.240;2.696;2023-06-10T11:34:02;30.90;44.70
73777;DHT22;62088;50.240;2.696;2023-06-10T11:36:42;31.10;44.60
73777;DHT22;62088;50.240;2.696;2023-06-10T11:39:12;31.20;44.20
73777;DHT22;62088;50.240;2.696;2023-06-10T11:41:39;31.20;43.10
73777;DHT22;62088;50.240;2.696;2023-06-10T11:44:11;31.30;42.80
73777;DHT22;62088;50.240;2.696;2023-06-10T11:46:43;31.40;42.80
73777;DHT22;62088;50.240;2.696;2023-06-10T11:49:11;31.50;42.20
73777;DHT22;62088;50.240;2.696;2023-06-10T11:51:40;31.50;41.90
73777;DHT22;62088;50.240;2.696;2023-06-10T11:54:09;31.60;41.70
73777;DHT22;62088;50.240;2.696;2023-06-10T11:56:36;31.60;41.70
73777;DHT22;62088;50.240;2.696;2023-06-10T11:59:07;31.70;41.40
73777;DHT22;62088;50.240;2.696;2023-06-10T12:01:36;31.80;41.60
73777;DHT22;62088;50.240;2.696;2023-06-10T12:04:13;31.80;41.30
73777;DHT22;62088;50.240;2.696;2023-06-10T12:06:48;31.90;41.30
73777;DHT22;62088;50.240;2.696;2023-06-10T12:09:25;31.90;41.40
73777;DHT22;62088;50.240;2.696;2023-06-10T12:12:04;31.90;40.90
73777;DHT22;62088;50.240;2.696;2023-06-10T12:14:55;31.90;40.70
73777;DHT22;62088;50.240;2.696;2023-06-10T12:20:03;32.00;40.20
73777;DHT22;62088;50.240;2.696;2023-06-10T12:22:41;32.00;40.20
73777;DHT22;62088;50.240;2.696;2023-06-10T12:25:10;32.10;40.90
73777;DHT22;62088;50.240;2.696;2023-06-10T12:27:39;32.10;41.20
73777;DHT22;62088;50.240;2.696;2023-06-10T12:30:08;32.10;40.70
73777;DHT22;62088;50.240;2.696;2023-06-10T12:32:42;32.20;40.30
73777;DHT22;62088;50.240;2.696;2023-06-10T12:35:17;32.30;40.30
73777;DHT22;62088;50.240;2.696;2023-06-10T12:38:01;32.30;40.80
73777;DHT22;62088;50.240;2.696;2023-06-10T12:40:32;32.40;40.70
73777;DHT22;62088;50.240;2.696;2023-06-10T12:43:01;32.50;40.80
73777;DHT22;62088;50.240;2.696;2023-06-10T12:45:30;32.60;40.50
73777;DHT22;62088;50.240;2.696;2023-06-10T12:48:08;32.60;40.40
73777;DHT22;62088;50.240;2.696;2023-06-10T12:50:41;32.80;40.20
73777;DHT22;62088;50.240;2.696;2023-06-10T12:53:09;32.80;39.70
73777;DHT22;62088;50.240;2.696;2023-06-10T12:55:38;32.80;40.00
73777;DHT22;62088;50.240;2.696;2023-06-10T12:58:05;32.80;39.70
73777;DHT22;62088;50.240;2.696;2023-06-10T13:00:32;32.80;39.50
73777;DHT22;62088;50.240;2.696;2023-06-10T13:03:02;32.90;39.30
73777;DHT22;62088;50.240;2.696;2023-06-10T13:05:29;33.00;39.70
73777;DHT22;62088;50.240;2.696;2023-06-10T13:07:57;33.00;39.90
73777;DHT22;62088;50.240;2.696;2023-06-10T13:10:24;33.00;39.70
73777;DHT22;62088;50.240;2.696;2023-06-10T13:12:52;33.10;39.50
73777;DHT22;62088;50.240;2.696;2023-06-10T13:15:21;33.20;39.50
73777;DHT22;62088;50.240;2.696;2023-06-10T13:17:48;33.30;39.40
73777;DHT22;62088;50.240;2.696;2023-06-10T13:20:17;33.30;39.60
73777;DHT22;62088;50.240;2.696;2023-06-10T13:22:44;33.30;39.30
73777;DHT22;62088;50.240;2.696;2023-06-10T13:25:12;33.30;38.80
73777;DHT22;62088;50.240;2.696;2023-06-10T13:27:40;33.40;38.70
73777;DHT22;62088;50.240;2.696;2023-06-10T13:30:10;33.40;38.70
73777;DHT22;62088;50.240;2.696;2023-06-10T13:32:38;33.40;38.80
73777;DHT22;62088;50.240;2.696;2023-06-10T13:35:06;33.40;38.60
73777;DHT22;62088;50.240;2.696;2023-06-10T13:37:34;33.50;38.80
73777;DHT22;62088;50.240;2.696;2023-06-10T13:40:01;33.50;38.60
73777;DHT22;62088;50.240;2.696;2023-06-10T13:42:29;33.50;38.60
73777;DHT22;62088;50.240;2.696;2023-06-10T13:44:56;33.50;38.20
73777;DHT22;62088;50.240;2.696;2023-06-10T13:47:24;33.50;38.00
73777;DHT22;62088;50.240;2.696;2023-06-10T13:49:51;33.40;38.20
73777;DHT22;62088;50.240;2.696;2023-06-10T13:52:18;33.50;38.30
73777;DHT22;62088;50.240;2.696;2023-06-10T13:54:45;33.40;37.90
73777;DHT22;62088;50.240;2.696;2023-06-10T13:57:12;33.40;37.90
73777;DHT22;62088;50.240;2.696;2023-06-10T13:59:39;33.40;37.90
73777;DHT22;62088;50.240;2.696;2023-06-10T14:02:07;33.50;37.90
73777;DHT22;62088;50.240;2.696;2023-06-10T14:04:34;33.50;37.40
73777;DHT22;62088;50.240;2.696;2023-06-10T14:07:01;33.50;37.10
73777;DHT22;62088;50.240;2.696;2023-06-10T14:09:28;33.50;37.30
73777;DHT22;62088;50.240;2.696;2023-06-10T14:11:55;33.40;37.50
73777;DHT22;62088;50.240;2.696;2023-06-10T14:14:22;33.50;37.80
73777;DHT22;62088;50.240;2.696;2023-06-10T14:16:50;33.50;38.20
73777;DHT22;62088;50.240;2.696;2023-06-10T14:19:17;33.60;38.40
73777;DHT22;62088;50.240;2.696;2023-06-10T14:21:44;33.60;38.40
73777;DHT22;62088;50.240;2.696;2023-06-10T14:24:11;33.50;37.60
73777;DHT22;62088;50.240;2.696;2023-06-10T14:26:38;33.50;37.70
73777;DHT22;62088;50.240;2.696;2023-06-10T14:29:05;33.40;37.90
73777;DHT22;62088;50.240;2.696;2023-06-10T14:31:33;33.50;38.00
73777;DHT22;62088;50.240;2.696;2023-06-10T14:34:01;33.40;38.20
73777;DHT22;62088;50.240;2.696;2023-06-10T14:36:28;33.40;38.10
73777;DHT22;62088;50.240;2.696;2023-06-10T14:38:55;33.30;37.80
73777;DHT22;62088;50.240;2.696;2023-06-10T14:41:23;33.30;37.60
73777;DHT22;62088;50.240;2.696;2023-06-10T14:43:52;33.20;37.70
73777;DHT22;62088;50.240;2.696;2023-06-10T14:46:19;33.20;37.70
73777;DHT22;62088;50.240;2.696;2023-06-10T14:48:48;33.10;37.90
73777;DHT22;62088;50.240;2.696;2023-06-10T14:51:16;33.10;38.10
73777;DHT22;62088;50.240;2.696;2023-06-10T14:53:43;33.00;38.20
73777;DHT22;62088;50.240;2.696;2023-06-10T14:56:10;32.90;38.40
73777;DHT22;62088;50.240;2.696;2023-06-10T14:58:37;32.80;38.40
73777;DHT22;62088;50.240;2.696;2023-06-10T15:01:04;32.80;38.40
73777;DHT22;62088;50.240;2.696;2023-06-10T15:03:31;32.80;38.40
73777;DHT22;62088;50.240;2.696;2023-06-10T15:05:58;32.80;38.70
73777;DHT22;62088;50.240;2.696;2023-06-10T15:08:27;32.80;38.60
73777;DHT22;62088;50.240;2.696;2023-06-10T15:10:57;32.80;38.60
73777;DHT22;62088;50.240;2.696;2023-06-10T15:13:24;32.80;38.70
73777;DHT22;62088;50.240;2.696;2023-06-10T15:15:51;32.80;38.80
73777;DHT22;62088;50.240;2.696;2023-06-10T15:18:19;32.80;38.90
73777;DHT22;62088;50.240;2.696;2023-06-10T15:20:46;32.80;39.00
73777;DHT22;62088;50.240;2.696;2023-06-10T15:23:15;32.80;39.00
73777;DHT22;62088;50.240;2.696;2023-06-10T15:25:42;32.80;38.70
73777;DHT22;62088;50.240;2.696;2023-06-10T15:28:09;32.80;38.60
73777;DHT22;62088;50.240;2.696;2023-06-10T15:30:36;32.80;38.40
73777;DHT22;62088;50.240;2.696;2023-06-10T15:33:04;32.80;38.20
73777;DHT22;62088;50.240;2.696;2023-06-10T15:35:33;32.80;38.10
73777;DHT22;62088;50.240;2.696;2023-06-10T15:38:01;32.80;38.00
73777;DHT22;62088;50.240;2.696;2023-06-10T15:40:28;32.80;38.00
73777;DHT22;62088;50.240;2.696;2023-06-10T15:42:55;32.80;37.70
73777;DHT22;62088;50.240;2.696;2023-06-10T15:45:22;32.80;37.80
73777;DHT22;62088;50.240;2.696;2023-06-10T15:47:49;32.80;37.70
73777;DHT22;62088;50.240;2.696;2023-06-10T15:50:16;32.80;37.70
73777;DHT22;62088;50.240;2.696;2023-06-10T15:52:43;32.80;37.80
73777;DHT22;62088;50.240;2.696;2023-06-10T15:55:10;32.80;37.80
73777;DHT22;62088;50.240;2.696;2023-06-10T15:57:38;32.90;37.80
73777;DHT22;62088;50.240;2.696;2023-06-10T16:00:06;32.90;38.00
73777;DHT22;62088;50.240;2.696;2023-06-10T16:02:33;33.00;37.90